sensor_id;sensor_type;location;lat;lon;timestamp;temperature;humidity
33109;HTU21D;19481;51.118;6.940;2023-01-30T00:04:02;4.26;70.27
33109;HTU21D;19481;51.118;6.940;2023-01-30T00:09:05;4.27;70.11
33109;HTU21D;19481;51.118;6.940;2023-01-30T00:14:07;4.31;70.12
33109;HTU21D;19481;51.118;6.940;2023-01-30T00:19:09;4.37;70.79
33109;HTU21D;19481;51.118;6.940;2023-01-30T00:24:12;4.44;69.76
33109;HTU21D;19481;51.118;6.940;2023-01-30T00:29:13;4.47;70.06
33109;HTU21D;19481;51.118;6.940;2023-01-30T00:34:15;4.52;70.29
33109;HTU21D;19481;51.118;6.940;2023-01-30T00:39:18;4.56;70.16
33109;HTU21D;19481;51.118;6.940;2023-01-30T00:44:20;4.56;70.45
33109;HTU21D;19481;51.118;6.940;2023-01-30T00:49:39;4.60;70.34
33109;HTU21D;19481;51.118;6.940;2023-01-30T00:54:42;4.63;70.65
33109;HTU21D;19481;51.118;6.940;2023-01-30T00:59:44;4.68;70.98
33109;HTU21D;19481;51.118;6.940;2023-01-30T01:04:46;4.73;70.23
33109;HTU21D;19481;51.118;6.940;2023-01-30T01:09:49;4.77;70.45
33109;HTU21D;19481;51.118;6.940;2023-01-30T01:14:50;4.80;70.58
33109;HTU21D;19481;51.118;6.940;2023-01-30T01:19:52;4.82;70.43
33109;HTU21D;19481;51.118;6.940;2023-01-30T01:24:55;4.87;70.45
33109;HTU21D;19481;51.118;6.940;2023-01-30T01:29:56;4.89;70.45
33109;HTU21D;19481;51.118;6.940;2023-01-30T01:34:58;4.88;70.77
33109;HTU21D;19481;51.118;6.940;2023-01-30T01:40:01;4.91;70.77
33109;HTU21D;19481;51.118;6.940;2023-01-30T01:45:22;4.94;70.64
33109;HTU21D;19481;51.118;6.940;2023-01-30T01:50:27;4.97;70.18
33109;HTU21D;19481;51.118;6.940;2023-01-30T01:55:32;4.98;70.10
33109;HTU21D;19481;51.118;6.940;2023-01-30T02:00:35;5.01;70.50
33109;HTU21D;19481;51.118;6.940;2023-01-30T02:05:41;5.04;70.16
33109;HTU21D;19481;51.118;6.940;2023-01-30T02:10:49;5.01;70.58
33109;HTU21D;19481;51.118;6.940;2023-01-30T02:15:54;5.02;70.32
33109;HTU21D;19481;51.118;6.940;2023-01-30T02:21:11;5.03;70.35
33109;HTU21D;19481;51.118;6.940;2023-01-30T02:26:53;5.02;71.90
33109;HTU21D;19481;51.118;6.940;2023-01-30T02:32:04;4.93;72.10
33109;HTU21D;19481;51.118;6.940;2023-01-30T02:37:15;4.97;70.94
33109;HTU21D;19481;51.118;6.940;2023-01-30T02:42:23;4.95;72.37
33109;HTU21D;19481;51.118;6.940;2023-01-30T02:47:33;5.01;71.08
33109;HTU21D;19481;51.118;6.940;2023-01-30T02:52:39;5.03;71.71
33109;HTU21D;19481;51.118;6.940;2023-01-30T02:57:41;5.05;73.47
33109;HTU21D;19481;51.118;6.940;2023-01-30T03:02:58;5.08;71.16
33109;HTU21D;19481;51.118;6.940;2023-01-30T03:08:19;5.10;71.55
33109;HTU21D;19481;51.118;6.940;2023-01-30T03:13:32;5.15;71.06
33109;HTU21D;19481;51.118;6.940;2023-01-30T03:18:36;5.18;71.97
33109;HTU21D;19481;51.118;6.940;2023-01-30T03:23:40;5.21;71.72
33109;HTU21D;19481;51.118;6.940;2023-01-30T03:28:42;5.28;73.05
33109;HTU21D;19481;51.118;6.940;2023-01-30T03:33:46;5.33;71.50
33109;HTU21D;19481;51.118;6.940;2023-01-30T03:38:50;5.36;72.27
33109;HTU21D;19481;51.118;6.940;2023-01-30T03:43:52;5.40;71.71
33109;HTU21D;19481;51.118;6.940;2023-01-30T03:48:54;5.45;71.45
33109;HTU21D;19481;51.118;6.940;2023-01-30T03:53:56;5.50;71.51
33109;HTU21D;19481;51.118;6.940;2023-01-30T03:58:58;5.51;71.43
33109;HTU21D;19481;51.118;6.940;2023-01-30T04:04:01;5.52;71.77
33109;HTU21D;19481;51.118;6.940;2023-01-30T04:09:02;5.48;72.20
33109;HTU21D;19481;51.118;6.940;2023-01-30T04:14:04;5.49;72.25
33109;HTU21D;19481;51.118;6.940;2023-01-30T04:19:07;5.52;71.90
33109;HTU21D;19481;51.118;6.940;2023-01-30T04:24:09;5.52;72.48
33109;HTU21D;19481;51.118;6.940;2023-01-30T04:29:10;5.52;72.99
33109;HTU21D;19481;51.118;6.940;2023-01-30T04:34:13;5.55;73.19
33109;HTU21D;19481;51.118;6.940;2023-01-30T04:39:16;5.54;73.17
33109;HTU21D;19481;51.118;6.940;2023-01-30T04:44:17;5.54;73.58
33109;HTU21D;19481;51.118;6.940;2023-01-30T04:49:20;5.55;72.74
33109;HTU21D;19481;51.118;6.940;2023-01-30T04:54:22;5.54;73.38
33109;HTU21D;19481;51.118;6.940;2023-01-30T04:59:24;5.55;73.89
33109;HTU21D;19481;51.118;6.940;2023-01-30T05:04:27;5.54;75.25
33109;HTU21D;19481;51.118;6.940;2023-01-30T05:09:28;5.54;76.42
33109;HTU21D;19481;51.118;6.940;2023-01-30T05:14:30;5.53;74.89
33109;HTU21D;19481;51.118;6.940;2023-01-30T05:19:33;5.52;75.03
33109;HTU21D;19481;51.118;6.940;2023-01-30T05:24:35;5.52;75.50
33109;HTU21D;19481;51.118;6.940;2023-01-30T05:29:36;5.55;76.01
33109;HTU21D;19481;51.118;6.940;2023-01-30T05:34:39;5.55;75.82
33109;HTU21D;19481;51.118;6.940;2023-01-30T05:39:41;5.59;75.66
33109;HTU21D;19481;51.118;6.940;2023-01-30T05:44:42;5.62;76.21
33109;HTU21D;19481;51.118;6.940;2023-01-30T05:49:46;5.64;76.14
33109;HTU21D;19481;51.118;6.940;2023-01-30T05:54:48;5.66;75.47
33109;HTU21D;19481;51.118;6.940;2023-01-30T05:59:49;5.70;75.34
33109;HTU21D;19481;51.118;6.940;2023-01-30T06:04:52;5.77;76.01
33109;HTU21D;19481;51.118;6.940;2023-01-30T06:09:55;5.81;75.68
33109;HTU21D;19481;51.118;6.940;2023-01-30T06:14:57;5.86;76.08
33109;HTU21D;19481;51.118;6.940;2023-01-30T06:20:00;5.92;75.29
33109;HTU21D;19481;51.118;6.940;2023-01-30T06:25:01;5.98;75.57
33109;HTU21D;19481;51.118;6.940;2023-01-30T06:30:04;6.00;75.41
33109;HTU21D;19481;51.118;6.940;2023-01-30T06:35:08;6.06;75.18
33109;HTU21D;19481;51.118;6.940;2023-01-30T06:40:11;6.09;75.48
33109;HTU21D;19481;51.118;6.940;2023-01-30T06:45:13;6.13;76.31
33109;HTU21D;19481;51.118;6.940;2023-01-30T06:50:17;6.14;76.59
33109;HTU21D;19481;51.118;6.940;2023-01-30T06:55:21;6.15;76.38
33109;HTU21D;19481;51.118;6.940;2023-01-30T07:00:22;6.17;75.82
33109;HTU21D;19481;51.118;6.940;2023-01-30T07:05:26;6.16;76.10
33109;HTU21D;19481;51.118;6.940;2023-01-30T07:10:29;6.17;76.28
33109;HTU21D;19481;51.118;6.940;2023-01-30T07:15:31;6.19;77.38
33109;HTU21D;19481;51.118;6.940;2023-01-30T07:20:34;6.21;76.33
33109;HTU21D;19481;51.118;6.940;2023-01-30T07:25:36;6.22;76.34
33109;HTU21D;19481;51.118;6.940;2023-01-30T07:30:38;6.23;76.00
33109;HTU21D;19481;51.118;6.940;2023-01-30T07:35:41;6.27;76.64
33109;HTU21D;19481;51.118;6.940;2023-01-30T07:40:42;6.26;76.63
33109;HTU21D;19481;51.118;6.940;2023-01-30T07:45:45;6.29;76.47
33109;HTU21D;19481;51.118;6.940;2023-01-30T07:50:49;6.35;76.37
33109;HTU21D;19481;51.118;6.940;2023-01-30T07:55:50;6.38;75.99
33109;HTU21D;19481;51.118;6.940;2023-01-30T08:00:53;6.40;75.89
33109;HTU21D;19481;51.118;6.940;2023-01-30T08:05:56;6.43;75.74
33109;HTU21D;19481;51.118;6.940;2023-01-30T08:10:58;6.50;75.57
33109;HTU21D;19481;51.118;6.940;2023-01-30T08:16:00;6.60;75.21
33109;HTU21D;19481;51.118;6.940;2023-01-30T08:21:04;6.55;75.31
33109;HTU21D;19481;51.118;6.940;2023-01-30T08:26:06;6.48;75.47
33109;HTU21D;19481;51.118;6.940;2023-01-30T08:31:09;6.58;75.21
33109;HTU21D;19481;51.118;6.940;2023-01-30T08:36:12;8.32;68.46
33109;HTU21D;19481;51.118;6.940;2023-01-30T08:41:14;10.77;60.84
33109;HTU21D;19481;51.118;6.940;2023-01-30T08:46:15;12.14;57.38
33109;HTU21D;19481;51.118;6.940;2023-01-30T08:51:20;11.19;62.17
33109;HTU21D;19481;51.118;6.940;2023-01-30T08:56:22;10.28;66.75
33109;HTU21D;19481;51.118;6.940;2023-01-30T09:01:24;9.10;70.82
33109;HTU21D;19481;51.118;6.940;2023-01-30T09:06:27;8.80;71.48
33109;HTU21D;19481;51.118;6.940;2023-01-30T09:11:29;8.63;71.43
33109;HTU21D;19481;51.118;6.940;2023-01-30T09:16:30;8.45;71.79
33109;HTU21D;19481;51.118;6.940;2023-01-30T09:21:33;8.21;71.95
33109;HTU21D;19481;51.118;6.940;2023-01-30T09:26:35;8.18;71.67
33109;HTU21D;19481;51.118;6.940;2023-01-30T09:31:37;8.16;71.14
33109;HTU21D;19481;51.118;6.940;2023-01-30T09:36:40;8.17;70.19
33109;HTU21D;19481;51.118;6.940;2023-01-30T09:41:50;8.83;67.97
33109;HTU21D;19481;51.118;6.940;2023-01-30T09:47:00;9.57;65.59
33109;HTU21D;19481;51.118;6.940;2023-01-30T09:52:17;9.18;67.19
33109;HTU21D;19481;51.118;6.940;2023-01-30T09:57:24;8.89;67.16
33109;HTU21D;19481;51.118;6.940;2023-01-30T10:02:46;9.40;62.99
33109;HTU21D;19481;51.118;6.940;2023-01-30T10:08:02;9.84;62.84
33109;HTU21D;19481;51.118;6.940;2023-01-30T10:13:30;9.18;65.66
33109;HTU21D;19481;51.118;6.940;2023-01-30T10:18:47;8.83;67.44
33109;HTU21D;19481;51.118;6.940;2023-01-30T10:24:04;8.44;65.64
33109;HTU21D;19481;51.118;6.940;2023-01-30T10:29:14;8.35;67.75
33109;HTU21D;19481;51.118;6.940;2023-01-30T10:34:18;8.24;67.65
33109;HTU21D;19481;51.118;6.940;2023-01-30T10:39:26;8.12;66.37
33109;HTU21D;19481;51.118;6.940;2023-01-30T10:44:29;8.05;66.71
33109;HTU21D;19481;51.118;6.940;2023-01-30T10:49:38;8.02;65.93
33109;HTU21D;19481;51.118;6.940;2023-01-30T10:54:48;7.99;63.56
33109;HTU21D;19481;51.118;6.940;2023-01-30T10:59:57;7.94;64.85
33109;HTU21D;19481;51.118;6.940;2023-01-30T11:05:03;7.90;62.16
33109;HTU21D;19481;51.118;6.940;2023-01-30T11:10:16;7.90;65.94
33109;HTU21D;19481;51.118;6.940;2023-01-30T11:15:20;7.89;65.78
33109;HTU21D;19481;51.118;6.940;2023-01-30T11:20:24;7.83;64.04
33109;HTU21D;19481;51.118;6.940;2023-01-30T11:25:27;7.86;64.49
33109;HTU21D;19481;51.118;6.940;2023-01-30T11:30:32;7.88;64.98
33109;HTU21D;19481;51.118;6.940;2023-01-30T11:35:39;7.90;62.66
33109;HTU21D;19481;51.118;6.940;2023-01-30T11:40:44;7.99;63.18
33109;HTU21D;19481;51.118;6.940;2023-01-30T11:45:47;8.02;64.33
33109;HTU21D;19481;51.118;6.940;2023-01-30T11:50:57;8.05;63.79
33109;HTU21D;19481;51.118;6.940;2023-01-30T11:56:07;8.14;63.73
33109;HTU21D;19481;51.118;6.940;2023-01-30T12:01:09;8.13;64.05
33109;HTU21D;19481;51.118;6.940;2023-01-30T12:06:20;8.06;62.09
33109;HTU21D;19481;51.118;6.940;2023-01-30T12:11:39;8.00;61.12
33109;HTU21D;19481;51.118;6.940;2023-01-30T12:16:53;8.02;62.98
33109;HTU21D;19481;51.118;6.940;2023-01-30T12:22:00;8.02;62.80
33109;HTU21D;19481;51.118;6.940;2023-01-30T12:27:12;8.05;61.18
33109;HTU21D;19481;51.118;6.940;2023-01-30T12:32:19;8.05;62.10
33109;HTU21D;19481;51.118;6.940;2023-01-30T12:37:33;8.05;61.89
33109;HTU21D;19481;51.118;6.940;2023-01-30T12:43:11;8.15;60.02
33109;HTU21D;19481;51.118;6.940;2023-01-30T12:48:33;8.28;57.29
33109;HTU21D;19481;51.118;6.940;2023-01-30T12:53:46;8.38;59.31
33109;HTU21D;19481;51.118;6.940;2023-01-30T12:58:56;8.56;61.35
33109;HTU21D;19481;51.118;6.940;2023-01-30T13:04:05;8.59;57.32
33109;HTU21D;19481;51.118;6.940;2023-01-30T13:09:32;8.70;58.54
33109;HTU21D;19481;51.118;6.940;2023-01-30T13:14:42;8.74;58.55
33109;HTU21D;19481;51.118;6.940;2023-01-30T13:19:51;8.68;57.86
33109;HTU21D;19481;51.118;6.940;2023-01-30T13:25:01;8.64;58.16
33109;HTU21D;19481;51.118;6.940;2023-01-30T13:30:12;8.66;60.01
33109;HTU21D;19481;51.118;6.940;2023-01-30T13:35:16;8.81;58.13
33109;HTU21D;19481;51.118;6.940;2023-01-30T13:40:21;8.75;59.56
33109;HTU21D;19481;51.118;6.940;2023-01-30T13:45:27;8.72;59.02
33109;HTU21D;19481;51.118;6.940;2023-01-30T13:50:39;8.75;59.73
33109;HTU21D;19481;51.118;6.940;2023-01-30T13:55:47;8.68;57.77
33109;HTU21D;19481;51.118;6.940;2023-01-30T14:00:54;8.65;57.77
33109;HTU21D;19481;51.118;6.940;2023-01-30T14:06:31;8.61;55.28
33109;HTU21D;19481;51.118;6.940;2023-01-30T14:11:37;8.59;58.85
33109;HTU21D;19481;51.118;6.940;2023-01-30T14:16:42;8.61;59.65
33109;HTU21D;19481;51.118;6.940;2023-01-30T14:21:53;8.62;56.40
33109;HTU21D;19481;51.118;6.940;2023-01-30T14:27:03;8.65;59.44
33109;HTU21D;19481;51.118;6.940;2023-01-30T14:32:34;8.68;53.03
33109;HTU21D;19481;51.118;6.940;2023-01-30T14:38:03;8.86;57.08
33109;HTU21D;19481;51.118;6.940;2023-01-30T14:43:48;8.63;55.97
33109;HTU21D;19481;51.118;6.940;2023-01-30T14:48:53;8.55;59.86
33109;HTU21D;19481;51.118;6.940;2023-01-30T14:53:58;8.36;59.49
33109;HTU21D;19481;51.118;6.940;2023-01-30T14:59:03;8.37;60.10
33109;HTU21D;19481;51.118;6.940;2023-01-30T15:04:13;8.41;56.93
33109;HTU21D;19481;51.118;6.940;2023-01-30T15:09:16;8.41;59.94
33109;HTU21D;19481;51.118;6.940;2023-01-30T15:14:22;8.31;58.86
33109;HTU21D;19481;51.118;6.940;2023-01-30T15:19:40;8.31;58.60
33109;HTU21D;19481;51.118;6.940;2023-01-30T15:30:36;8.07;59.48
33109;HTU21D;19481;51.118;6.940;2023-01-30T15:35:43;7.91;60.73
33109;HTU21D;19481;51.118;6.940;2023-01-30T15:40:45;7.77;61.21
33109;HTU21D;19481;51.118;6.940;2023-01-30T15:46:00;7.69;60.80
33109;HTU21D;19481;51.118;6.940;2023-01-30T15:51:10;7.75;61.14
33109;HTU21D;19481;51.118;6.940;2023-01-30T15:56:17;7.73;60.98
33109;HTU21D;19481;51.118;6.940;2023-01-30T16:01:20;7.75;60.58
33109;HTU21D;19481;51.118;6.940;2023-01-30T16:06:29;7.62;60.14
33109;HTU21D;19481;51.118;6.940;2023-01-30T16:11:33;7.49;61.42
33109;HTU21D;19481;51.118;6.940;2023-01-30T16:16:35;7.46;61.47
33109;HTU21D;19481;51.118;6.940;2023-01-30T16:21:39;7.49;61.42
33109;HTU21D;19481;51.118;6.940;2023-01-30T16:26:43;7.49;61.05
33109;HTU21D;19481;51.118;6.940;2023-01-30T16:31:46;7.48;61.47
33109;HTU21D;19481;51.118;6.940;2023-01-30T16:36:50;7.46;61.00
33109;HTU21D;19481;51.118;6.940;2023-01-30T16:41:53;7.42;61.57
33109;HTU21D;19481;51.118;6.940;2023-01-30T16:46:58;7.41;61.79
33109;HTU21D;19481;51.118;6.940;2023-01-30T16:52:03;7.38;62.00
33109;HTU21D;19481;51.118;6.940;2023-01-30T16:57:06;7.39;61.63
33109;HTU21D;19481;51.118;6.940;2023-01-30T17:02:23;7.32;61.92
33109;HTU21D;19481;51.118;6.940;2023-01-30T17:07:34;7.25;61.63
33109;HTU21D;19481;51.118;6.940;2023-01-30T17:12:41;7.17;62.23
33109;HTU21D;19481;51.118;6.940;2023-01-30T17:17:43;7.09;62.56
33109;HTU21D;19481;51.118;6.940;2023-01-30T17:22:48;7.05;62.57
33109;HTU21D;19481;51.118;6.940;2023-01-30T17:27:52;7.08;62.31
33109;HTU21D;19481;51.118;6.940;2023-01-30T17:32:53;7.11;62.21
33109;HTU21D;19481;51.118;6.940;2023-01-30T17:37:56;7.05;62.46
33109;HTU21D;19481;51.118;6.940;2023-01-30T17:42:58;7.03;62.44
33109;HTU21D;19481;51.118;6.940;2023-01-30T17:48:00;7.04;62.33
33109;HTU21D;19481;51.118;6.940;2023-01-30T17:53:03;7.10;62.28
33109;HTU21D;19481;51.118;6.940;2023-01-30T17:58:05;7.09;62.37
33109;HTU21D;19481;51.118;6.940;2023-01-30T18:03:07;7.12;62.33
33109;HTU21D;19481;51.118;6.940;2023-01-30T18:08:10;7.14;62.39
33109;HTU21D;19481;51.118;6.940;2023-01-30T18:13:13;7.10;62.57
33109;HTU21D;19481;51.118;6.940;2023-01-30T18:18:16;6.93;62.78
33109;HTU21D;19481;51.118;6.940;2023-01-30T18:23:19;6.78;63.30
33109;HTU21D;19481;51.118;6.940;2023-01-30T18:28:21;6.58;63.78
33109;HTU21D;19481;51.118;6.940;2023-01-30T18:33:23;6.54;63.69
33109;HTU21D;19481;51.118;6.940;2023-01-30T18:38:26;6.49;63.76
33109;HTU21D;19481;51.118;6.940;2023-01-30T18:43:28;6.39;63.92
33109;HTU21D;19481;51.118;6.940;2023-01-30T18:48:30;6.50;63.62
33109;HTU21D;19481;51.118;6.940;2023-01-30T18:53:34;6.56;63.34
33109;HTU21D;19481;51.118;6.940;2023-01-30T18:58:35;6.58;63.37
33109;HTU21D;19481;51.118;6.940;2023-01-30T19:03:37;6.63;63.45
33109;HTU21D;19481;51.118;6.940;2023-01-30T19:08:40;6.63;63.43
33109;HTU21D;19481;51.118;6.940;2023-01-30T19:13:42;6.57;63.61
33109;HTU21D;19481;51.118;6.940;2023-01-30T19:18:43;6.51;63.86
33109;HTU21D;19481;51.118;6.940;2023-01-30T19:23:47;6.39;64.21
33109;HTU21D;19481;51.118;6.940;2023-01-30T19:28:49;6.28;64.43
33109;HTU21D;19481;51.118;6.940;2023-01-30T19:33:55;6.19;64.55
33109;HTU21D;19481;51.118;6.940;2023-01-30T19:38:59;6.12;64.69
33109;HTU21D;19481;51.118;6.940;2023-01-30T19:44:02;5.99;65.01
33109;HTU21D;19481;51.118;6.940;2023-01-30T19:49:04;5.82;65.43
33109;HTU21D;19481;51.118;6.940;2023-01-30T19:54:09;5.70;65.56
33109;HTU21D;19481;51.118;6.940;2023-01-30T19:59:11;5.59;65.95
33109;HTU21D;19481;51.118;6.940;2023-01-30T20:04:15;5.53;65.95
33109;HTU21D;19481;51.118;6.940;2023-01-30T20:09:18;5.43;66.11
33109;HTU21D;19481;51.118;6.940;2023-01-30T20:14:19;5.47;66.08
33109;HTU21D;19481;51.118;6.940;2023-01-30T20:19:21;5.35;66.33
33109;HTU21D;19481;51.118;6.940;2023-01-30T20:24:25;5.24;66.60
33109;HTU21D;19481;51.118;6.940;2023-01-30T20:29:27;5.19;66.76
33109;HTU21D;19481;51.118;6.940;2023-01-30T20:34:28;5.13;66.78
33109;HTU21D;19481;51.118;6.940;2023-01-30T20:39:31;5.02;66.96
33109;HTU21D;19481;51.118;6.940;2023-01-30T20:44:33;5.01;67.27
33109;HTU21D;19481;51.118;6.940;2023-01-30T20:49:35;5.04;66.96
33109;HTU21D;19481;51.118;6.940;2023-01-30T20:54:38;4.97;67.05
33109;HTU21D;19481;51.118;6.940;2023-01-30T20:59:39;4.97;66.88
33109;HTU21D;19481;51.118;6.940;2023-01-30T21:04:41;4.94;66.94
33109;HTU21D;19481;51.118;6.940;2023-01-30T21:09:44;4.88;67.10
33109;HTU21D;19481;51.118;6.940;2023-01-30T21:14:46;4.84;67.18
33109;HTU21D;19481;51.118;6.940;2023-01-30T21:19:47;4.79;67.36
33109;HTU21D;19481;51.118;6.940;2023-01-30T21:24:50;4.82;67.17
33109;HTU21D;19481;51.118;6.940;2023-01-30T21:29:52;4.82;67.30
33109;HTU21D;19481;51.118;6.940;2023-01-30T21:34:53;4.72;67.77
33109;HTU21D;19481;51.118;6.940;2023-01-30T21:39:56;4.69;67.74
33109;HTU21D;19481;51.118;6.940;2023-01-30T21:45:16;4.67;67.70
33109;HTU21D;19481;51.118;6.940;2023-01-30T21:50:19;4.62;68.02
33109;HTU21D;19481;51.118;6.940;2023-01-30T21:55:22;4.60;67.84
33109;HTU21D;19481;51.118;6.940;2023-01-30T22:00:24;4.61;67.97
33109;HTU21D;19481;51.118;6.940;2023-01-30T22:05:26;4.61;68.11
33109;HTU21D;19481;51.118;6.940;2023-01-30T22:10:36;4.65;68.19
33109;HTU21D;19481;51.118;6.940;2023-01-30T22:15:38;4.61;68.47
33109;HTU21D;19481;51.118;6.940;2023-01-30T22:20:39;4.57;68.52
33109;HTU21D;19481;51.118;6.940;2023-01-30T22:25:42;4.53;68.76
33109;HTU21D;19481;51.118;6.940;2023-01-30T22:30:44;4.47;68.81
33109;HTU21D;19481;51.118;6.940;2023-01-30T22:35:47;4.44;68.90
33109;HTU21D;19481;51.118;6.940;2023-01-30T22:40:57;4.52;68.56
33109;HTU21D;19481;51.118;6.940;2023-01-30T22:46:01;4.59;68.69
33109;HTU21D;19481;51.118;6.940;2023-01-30T22:51:04;4.67;68.58
33109;HTU21D;19481;51.118;6.940;2023-01-30T22:56:09;4.74;68.26
33109;HTU21D;19481;51.118;6.940;2023-01-30T23:01:12;4.76;68.30
33109;HTU21D;19481;51.118;6.940;2023-01-30T23:06:15;4.78;68.36
33109;HTU21D;19481;51.118;6.940;2023-01-30T23:11:21;4.81;68.14
33109;HTU21D;19481;51.118;6.940;2023-01-30T23:16:25;4.84;68.25
33109;HTU21D;19481;51.118;6.940;2023-01-30T23:21:29;4.86;68.23
33109;HTU21D;19481;51.118;6.940;2023-01-30T23:26:35;4.91;68.10
33109;HTU21D;19481;51.118;6.940;2023-01-30T23:31:37;4.95;68.12
33109;HTU21D;19481;51.118;6.940;2023-01-30T23:36:39;5.03;68.04
33109;HTU21D;19481;51.118;6.940;2023-01-30T23:41:42;5.04;67.91
33109;HTU21D;19481;51.118;6.940;2023-01-30T23:46:43;5.03;68.23
33109;HTU21D;19481;51.118;6.940;2023-01-30T23:51:45;5.10;67.97
33109;HTU21D;19481;51.118;6.940;2023-01-30T23:56:48;5.13;67.79
